sensor_id;sensor_type;location;lat;lon;timestamp;temperature;humidity
48806;DHT22;34625;47.176;27.548;2022-12-18T00:00:41;21.50;62.20
48806;DHT22;34625;47.176;27.548;2022-12-18T00:03:08;21.50;62.10
48806;DHT22;34625;47.176;27.548;2022-12-18T00:05:34;21.50;62.00
48806;DHT22;34625;47.176;27.548;2022-12-18T00:08:00;21.60;61.90
48806;DHT22;34625;47.176;27.548;2022-12-18T00:10:27;21.50;61.90
48806;DHT22;34625;47.176;27.548;2022-12-18T00:12:53;21.50;62.20
48806;DHT22;34625;47.176;27.548;2022-12-18T00:15:19;21.40;62.00
48806;DHT22;34625;47.176;27.548;2022-12-18T00:17:45;21.30;62.40
48806;DHT22;34625;47.176;27.548;2022-12-18T00:20:11;21.40;62.80
48806;DHT22;34625;47.176;27.548;2022-12-18T00:22:37;21.30;62.20
48806;DHT22;34625;47.176;27.548;2022-12-18T00:25:03;21.20;62.20
48806;DHT22;34625;47.176;27.548;2022-12-18T00:27:29;21.20;62.20
48806;DHT22;34625;47.176;27.548;2022-12-18T00:29:55;21.20;62.30
48806;DHT22;34625;47.176;27.548;2022-12-18T00:32:21;21.20;62.60
48806;DHT22;34625;47.176;27.548;2022-12-18T00:34:47;21.20;62.60
48806;DHT22;34625;47.176;27.548;2022-12-18T00:37:14;21.30;62.40
48806;DHT22;34625;47.176;27.548;2022-12-18T00:39:40;21.20;62.30
48806;DHT22;34625;47.176;27.548;2022-12-18T00:42:08;21.20;62.10
48806;DHT22;34625;47.176;27.548;2022-12-18T00:44:54;21.30;62.60
48806;DHT22;34625;47.176;27.548;2022-12-18T00:47:20;21.20;62.10
48806;DHT22;34625;47.176;27.548;2022-12-18T00:49:46;21.30;62.40
48806;DHT22;34625;47.176;27.548;2022-12-18T00:52:12;21.20;61.70
48806;DHT22;34625;47.176;27.548;2022-12-18T00:54:38;21.30;62.00
48806;DHT22;34625;47.176;27.548;2022-12-18T00:57:04;21.20;61.70
48806;DHT22;34625;47.176;27.548;2022-12-18T00:59:30;21.20;61.60
48806;DHT22;34625;47.176;27.548;2022-12-18T01:01:56;21.30;61.90
48806;DHT22;34625;47.176;27.548;2022-12-18T01:04:22;21.10;61.50
48806;DHT22;34625;47.176;27.548;2022-12-18T01:06:48;21.20;61.50
48806;DHT22;34625;47.176;27.548;2022-12-18T01:09:14;21.10;61.90
48806;DHT22;34625;47.176;27.548;2022-12-18T01:11:40;21.20;61.70
48806;DHT22;34625;47.176;27.548;2022-12-18T01:14:07;21.00;61.60
48806;DHT22;34625;47.176;27.548;2022-12-18T01:16:33;21.10;61.80
48806;DHT22;34625;47.176;27.548;2022-12-18T01:18:59;21.00;62.00
48806;DHT22;34625;47.176;27.548;2022-12-18T01:21:27;20.90;62.10
48806;DHT22;34625;47.176;27.548;2022-12-18T01:23:54;20.90;62.30
48806;DHT22;34625;47.176;27.548;2022-12-18T01:26:23;20.90;62.20
48806;DHT22;34625;47.176;27.548;2022-12-18T01:28:50;20.90;62.30
48806;DHT22;34625;47.176;27.548;2022-12-18T01:31:27;20.90;62.40
48806;DHT22;34625;47.176;27.548;2022-12-18T01:33:54;20.90;62.20
48806;DHT22;34625;47.176;27.548;2022-12-18T01:36:26;20.90;62.30
48806;DHT22;34625;47.176;27.548;2022-12-18T01:38:52;21.00;62.10
48806;DHT22;34625;47.176;27.548;2022-12-18T01:41:24;20.90;62.00
48806;DHT22;34625;47.176;27.548;2022-12-18T01:43:56;20.90;61.90
48806;DHT22;34625;47.176;27.548;2022-12-18T01:46:24;20.90;61.90
48806;DHT22;34625;47.176;27.548;2022-12-18T01:48:55;20.90;62.00
48806;DHT22;34625;47.176;27.548;2022-12-18T01:51:23;21.10;61.40
48806;DHT22;34625;47.176;27.548;2022-12-18T01:53:50;21.00;61.40
48806;DHT22;34625;47.176;27.548;2022-12-18T01:56:18;21.00;61.20
48806;DHT22;34625;47.176;27.548;2022-12-18T02:01:16;21.00;61.20
48806;DHT22;34625;47.176;27.548;2022-12-18T02:03:44;21.10;61.40
48806;DHT22;34625;47.176;27.548;2022-12-18T02:06:17;21.00;61.30
48806;DHT22;34625;47.176;27.548;2022-12-18T02:09:13;21.00;61.20
48806;DHT22;34625;47.176;27.548;2022-12-18T02:12:04;20.90;61.50
48806;DHT22;34625;47.176;27.548;2022-12-18T02:14:41;21.00;61.20
48806;DHT22;34625;47.176;27.548;2022-12-18T02:17:22;20.90;61.00
48806;DHT22;34625;47.176;27.548;2022-12-18T02:20:21;20.90;61.50
48806;DHT22;34625;47.176;27.548;2022-12-18T02:25:58;20.80;61.70
48806;DHT22;34625;47.176;27.548;2022-12-18T02:28:31;20.70;61.90
48806;DHT22;34625;47.176;27.548;2022-12-18T02:31:03;20.80;61.60
48806;DHT22;34625;47.176;27.548;2022-12-18T02:33:33;20.80;61.40
48806;DHT22;34625;47.176;27.548;2022-12-18T02:36:00;20.80;61.40
48806;DHT22;34625;47.176;27.548;2022-12-18T02:38:30;20.80;60.90
48806;DHT22;34625;47.176;27.548;2022-12-18T02:41:02;20.80;61.00
48806;DHT22;34625;47.176;27.548;2022-12-18T02:43:29;20.80;61.10
48806;DHT22;34625;47.176;27.548;2022-12-18T02:45:58;20.70;61.10
48806;DHT22;34625;47.176;27.548;2022-12-18T02:48:31;20.80;61.00
48806;DHT22;34625;47.176;27.548;2022-12-18T02:51:08;20.70;61.00
48806;DHT22;34625;47.176;27.548;2022-12-18T02:53:43;20.80;61.20
48806;DHT22;34625;47.176;27.548;2022-12-18T02:56:20;20.80;61.00
48806;DHT22;34625;47.176;27.548;2022-12-18T02:59:00;20.80;60.70
48806;DHT22;34625;47.176;27.548;2022-12-18T03:04:28;20.80;60.30
48806;DHT22;34625;47.176;27.548;2022-12-18T03:06:59;20.80;60.10
48806;DHT22;34625;47.176;27.548;2022-12-18T03:09:40;20.80;60.20
48806;DHT22;34625;47.176;27.548;2022-12-18T03:12:24;20.90;60.30
48806;DHT22;34625;47.176;27.548;2022-12-18T03:15:03;20.80;60.00
48806;DHT22;34625;47.176;27.548;2022-12-18T03:17:33;20.70;60.20
48806;DHT22;34625;47.176;27.548;2022-12-18T03:20:04;20.70;60.30
48806;DHT22;34625;47.176;27.548;2022-12-18T03:22:33;20.80;60.50
48806;DHT22;34625;47.176;27.548;2022-12-18T03:25:04;20.70;60.30
48806;DHT22;34625;47.176;27.548;2022-12-18T03:27:33;20.80;60.20
48806;DHT22;34625;47.176;27.548;2022-12-18T03:30:08;20.80;60.80
48806;DHT22;34625;47.176;27.548;2022-12-18T03:35:45;20.70;60.20
48806;DHT22;34625;47.176;27.548;2022-12-18T03:38:13;20.80;60.50
48806;DHT22;34625;47.176;27.548;2022-12-18T03:46:26;20.70;60.30
48806;DHT22;34625;47.176;27.548;2022-12-18T03:49:17;20.70;60.40
48806;DHT22;34625;47.176;27.548;2022-12-18T03:51:59;20.70;60.60
48806;DHT22;34625;47.176;27.548;2022-12-18T03:54:28;20.80;60.40
48806;DHT22;34625;47.176;27.548;2022-12-18T03:57:11;20.80;60.40
48806;DHT22;34625;47.176;27.548;2022-12-18T03:59:41;20.60;60.20
48806;DHT22;34625;47.176;27.548;2022-12-18T04:02:08;20.70;60.20
48806;DHT22;34625;47.176;27.548;2022-12-18T04:04:39;20.80;60.40
48806;DHT22;34625;47.176;27.548;2022-12-18T04:07:06;20.80;59.80
48806;DHT22;34625;47.176;27.548;2022-12-18T04:09:36;20.60;59.80
48806;DHT22;34625;47.176;27.548;2022-12-18T04:12:05;20.60;60.10
48806;DHT22;34625;47.176;27.548;2022-12-18T04:14:31;20.70;60.30
48806;DHT22;34625;47.176;27.548;2022-12-18T04:17:03;20.50;60.40
48806;DHT22;34625;47.176;27.548;2022-12-18T04:19:31;20.50;60.50
48806;DHT22;34625;47.176;27.548;2022-12-18T04:21:59;20.50;60.60
48806;DHT22;34625;47.176;27.548;2022-12-18T04:24:26;20.50;60.90
48806;DHT22;34625;47.176;27.548;2022-12-18T04:27:03;20.40;60.90
48806;DHT22;34625;47.176;27.548;2022-12-18T04:29:33;20.50;60.80
48806;DHT22;34625;47.176;27.548;2022-12-18T04:31:59;20.40;60.90
48806;DHT22;34625;47.176;27.548;2022-12-18T04:34:26;20.50;61.10
48806;DHT22;34625;47.176;27.548;2022-12-18T04:36:53;20.40;60.70
48806;DHT22;34625;47.176;27.548;2022-12-18T04:39:21;20.40;61.10
48806;DHT22;34625;47.176;27.548;2022-12-18T04:41:50;20.30;61.00
48806;DHT22;34625;47.176;27.548;2022-12-18T04:44:16;20.30;61.10
48806;DHT22;34625;47.176;27.548;2022-12-18T04:46:42;20.40;61.30
48806;DHT22;34625;47.176;27.548;2022-12-18T04:49:08;20.30;61.50
48806;DHT22;34625;47.176;27.548;2022-12-18T04:51:36;20.20;61.00
48806;DHT22;34625;47.176;27.548;2022-12-18T04:54:03;20.30;61.50
48806;DHT22;34625;47.176;27.548;2022-12-18T04:56:31;20.30;61.50
48806;DHT22;34625;47.176;27.548;2022-12-18T04:58:57;20.20;62.10
48806;DHT22;34625;47.176;27.548;2022-12-18T05:01:23;20.30;62.00
48806;DHT22;34625;47.176;27.548;2022-12-18T05:03:51;20.30;61.70
48806;DHT22;34625;47.176;27.548;2022-12-18T05:06:17;20.40;61.70
48806;DHT22;34625;47.176;27.548;2022-12-18T05:08:42;20.40;61.40
48806;DHT22;34625;47.176;27.548;2022-12-18T05:11:11;20.40;61.60
48806;DHT22;34625;47.176;27.548;2022-12-18T05:13:37;20.30;61.50
48806;DHT22;34625;47.176;27.548;2022-12-18T05:16:04;20.40;61.60
48806;DHT22;34625;47.176;27.548;2022-12-18T05:18:31;20.40;61.30
48806;DHT22;34625;47.176;27.548;2022-12-18T05:20:57;20.40;61.20
48806;DHT22;34625;47.176;27.548;2022-12-18T05:23:24;20.50;61.40
48806;DHT22;34625;47.176;27.548;2022-12-18T05:26:01;20.50;61.30
48806;DHT22;34625;47.176;27.548;2022-12-18T05:28:30;20.60;61.10
48806;DHT22;34625;47.176;27.548;2022-12-18T05:30:59;20.50;61.20
48806;DHT22;34625;47.176;27.548;2022-12-18T05:33:29;20.60;60.80
48806;DHT22;34625;47.176;27.548;2022-12-18T05:35:57;20.60;61.00
48806;DHT22;34625;47.176;27.548;2022-12-18T05:38:24;20.70;60.60
48806;DHT22;34625;47.176;27.548;2022-12-18T05:40:51;20.70;60.40
48806;DHT22;34625;47.176;27.548;2022-12-18T05:43:18;20.70;60.50
48806;DHT22;34625;47.176;27.548;2022-12-18T05:45:45;20.70;60.00
48806;DHT22;34625;47.176;27.548;2022-12-18T05:48:12;20.80;60.00
48806;DHT22;34625;47.176;27.548;2022-12-18T05:50:40;20.90;60.00
48806;DHT22;34625;47.176;27.548;2022-12-18T05:53:07;20.80;59.80
48806;DHT22;34625;47.176;27.548;2022-12-18T05:55:37;20.80;59.90
48806;DHT22;34625;47.176;27.548;2022-12-18T05:58:04;20.80;60.00
48806;DHT22;34625;47.176;27.548;2022-12-18T06:00:32;20.90;59.60
48806;DHT22;34625;47.176;27.548;2022-12-18T06:02:58;20.90;59.30
48806;DHT22;34625;47.176;27.548;2022-12-18T06:05:25;20.90;59.30
48806;DHT22;34625;47.176;27.548;2022-12-18T06:07:51;20.90;59.60
48806;DHT22;34625;47.176;27.548;2022-12-18T06:10:17;20.90;59.30
48806;DHT22;34625;47.176;27.548;2022-12-18T06:12:43;21.00;58.00
48806;DHT22;34625;47.176;27.548;2022-12-18T06:15:10;20.90;58.80
48806;DHT22;34625;47.176;27.548;2022-12-18T06:17:36;20.90;58.80
48806;DHT22;34625;47.176;27.548;2022-12-18T06:20:04;20.90;54.90
48806;DHT22;34625;47.176;27.548;2022-12-18T06:22:32;20.80;49.60
48806;DHT22;34625;47.176;27.548;2022-12-18T06:24:58;20.90;47.40
48806;DHT22;34625;47.176;27.548;2022-12-18T06:27:25;20.90;47.20
48806;DHT22;34625;47.176;27.548;2022-12-18T06:29:51;20.90;45.40
48806;DHT22;34625;47.176;27.548;2022-12-18T06:32:17;21.00;44.70
48806;DHT22;34625;47.176;27.548;2022-12-18T06:34:42;21.10;42.50
48806;DHT22;34625;47.176;27.548;2022-12-18T06:37:08;21.30;43.90
48806;DHT22;34625;47.176;27.548;2022-12-18T06:39:35;21.30;42.70
48806;DHT22;34625;47.176;27.548;2022-12-18T06:42:00;21.40;43.00
48806;DHT22;34625;47.176;27.548;2022-12-18T06:44:26;21.40;43.70
48806;DHT22;34625;47.176;27.548;2022-12-18T06:46:52;21.50;42.20
48806;DHT22;34625;47.176;27.548;2022-12-18T06:49:18;21.60;43.00
48806;DHT22;34625;47.176;27.548;2022-12-18T06:51:44;21.70;45.00
48806;DHT22;34625;47.176;27.548;2022-12-18T06:54:10;21.70;45.30
48806;DHT22;34625;47.176;27.548;2022-12-18T06:56:36;21.80;43.90
48806;DHT22;34625;47.176;27.548;2022-12-18T06:59:02;21.80;44.60
48806;DHT22;34625;47.176;27.548;2022-12-18T07:01:28;21.90;43.60
48806;DHT22;34625;47.176;27.548;2022-12-18T07:03:55;21.80;41.50
48806;DHT22;34625;47.176;27.548;2022-12-18T07:06:23;21.80;41.00
48806;DHT22;34625;47.176;27.548;2022-12-18T07:08:50;21.90;50.80
48806;DHT22;34625;47.176;27.548;2022-12-18T07:11:17;22.00;57.90
48806;DHT22;34625;47.176;27.548;2022-12-18T07:13:44;22.00;59.50
48806;DHT22;34625;47.176;27.548;2022-12-18T07:16:13;22.10;61.60
48806;DHT22;34625;47.176;27.548;2022-12-18T07:18:39;22.20;61.20
48806;DHT22;34625;47.176;27.548;2022-12-18T07:21:10;22.30;54.40
48806;DHT22;34625;47.176;27.548;2022-12-18T07:23:37;22.00;56.30
48806;DHT22;34625;47.176;27.548;2022-12-18T07:26:08;22.10;54.30
48806;DHT22;34625;47.176;27.548;2022-12-18T07:28:35;22.00;53.40
48806;DHT22;34625;47.176;27.548;2022-12-18T07:31:07;22.00;47.50
48806;DHT22;34625;47.176;27.548;2022-12-18T07:33:34;22.00;52.40
48806;DHT22;34625;47.176;27.548;2022-12-18T07:36:01;22.00;49.10
48806;DHT22;34625;47.176;27.548;2022-12-18T07:38:29;21.90;54.40
48806;DHT22;34625;47.176;27.548;2022-12-18T07:41:03;22.00;52.50
48806;DHT22;34625;47.176;27.548;2022-12-18T07:43:30;22.00;53.40
48806;DHT22;34625;47.176;27.548;2022-12-18T07:45:56;22.00;54.30
48806;DHT22;34625;47.176;27.548;2022-12-18T07:48:22;22.10;54.10
48806;DHT22;34625;47.176;27.548;2022-12-18T07:50:48;22.00;53.90
48806;DHT22;34625;47.176;27.548;2022-12-18T07:53:14;21.80;54.70
48806;DHT22;34625;47.176;27.548;2022-12-18T07:55:41;21.70;56.00
48806;DHT22;34625;47.176;27.548;2022-12-18T07:58:07;21.80;56.10
48806;DHT22;34625;47.176;27.548;2022-12-18T08:00:34;21.80;56.90
48806;DHT22;34625;47.176;27.548;2022-12-18T08:03:01;21.80;54.40
48806;DHT22;34625;47.176;27.548;2022-12-18T08:05:27;21.90;56.50
48806;DHT22;34625;47.176;27.548;2022-12-18T08:07:54;21.80;56.40
48806;DHT22;34625;47.176;27.548;2022-12-18T08:10:20;21.90;56.60
48806;DHT22;34625;47.176;27.548;2022-12-18T08:12:50;22.00;57.20
48806;DHT22;34625;47.176;27.548;2022-12-18T08:15:16;22.00;57.80
48806;DHT22;34625;47.176;27.548;2022-12-18T08:17:42;22.10;57.50
48806;DHT22;34625;47.176;27.548;2022-12-18T08:20:09;22.10;56.10
48806;DHT22;34625;47.176;27.548;2022-12-18T08:22:35;22.10;54.20
48806;DHT22;34625;47.176;27.548;2022-12-18T08:25:04;22.00;58.20
48806;DHT22;34625;47.176;27.548;2022-12-18T08:27:30;22.10;48.90
48806;DHT22;34625;47.176;27.548;2022-12-18T08:29:57;22.60;52.70
48806;DHT22;34625;47.176;27.548;2022-12-18T08:32:24;22.70;43.30
48806;DHT22;34625;47.176;27.548;2022-12-18T08:34:50;22.90;38.90
48806;DHT22;34625;47.176;27.548;2022-12-18T08:37:16;22.80;37.30
48806;DHT22;34625;47.176;27.548;2022-12-18T08:39:42;22.90;38.90
48806;DHT22;34625;47.176;27.548;2022-12-18T08:42:09;23.00;39.10
48806;DHT22;34625;47.176;27.548;2022-12-18T08:44:53;23.10;39.40
48806;DHT22;34625;47.176;27.548;2022-12-18T08:47:19;23.00;36.90
48806;DHT22;34625;47.176;27.548;2022-12-18T08:49:45;23.10;36.90
48806;DHT22;34625;47.176;27.548;2022-12-18T08:52:11;23.20;35.50
48806;DHT22;34625;47.176;27.548;2022-12-18T08:54:40;23.20;45.90
48806;DHT22;34625;47.176;27.548;2022-12-18T08:57:06;23.00;50.20
48806;DHT22;34625;47.176;27.548;2022-12-18T08:59:32;23.00;52.00
48806;DHT22;34625;47.176;27.548;2022-12-18T09:01:58;22.70;48.00
48806;DHT22;34625;47.176;27.548;2022-12-18T09:04:24;22.70;50.20
48806;DHT22;34625;47.176;27.548;2022-12-18T09:06:50;22.70;46.90
48806;DHT22;34625;47.176;27.548;2022-12-18T09:09:16;22.60;51.60
48806;DHT22;34625;47.176;27.548;2022-12-18T09:11:42;22.50;47.80
48806;DHT22;34625;47.176;27.548;2022-12-18T09:14:09;22.40;49.60
48806;DHT22;34625;47.176;27.548;2022-12-18T09:16:35;22.20;54.00
48806;DHT22;34625;47.176;27.548;2022-12-18T09:19:03;22.20;52.20
48806;DHT22;34625;47.176;27.548;2022-12-18T09:21:32;22.10;47.50
48806;DHT22;34625;47.176;27.548;2022-12-18T09:23:58;22.10;56.20
48806;DHT22;34625;47.176;27.548;2022-12-18T09:26:26;22.00;52.50
48806;DHT22;34625;47.176;27.548;2022-12-18T09:28:52;22.00;54.50
48806;DHT22;34625;47.176;27.548;2022-12-18T09:31:20;21.90;48.80
48806;DHT22;34625;47.176;27.548;2022-12-18T09:33:47;21.70;52.30
48806;DHT22;34625;47.176;27.548;2022-12-18T09:36:15;21.60;51.40
48806;DHT22;34625;47.176;27.548;2022-12-18T09:38:41;21.50;54.20
48806;DHT22;34625;47.176;27.548;2022-12-18T09:44:01;21.40;51.50
48806;DHT22;34625;47.176;27.548;2022-12-18T09:46:32;21.50;56.50
48806;DHT22;34625;47.176;27.548;2022-12-18T09:49:02;21.30;53.30
48806;DHT22;34625;47.176;27.548;2022-12-18T09:51:39;21.30;55.40
48806;DHT22;34625;47.176;27.548;2022-12-18T09:54:26;21.20;49.00
48806;DHT22;34625;47.176;27.548;2022-12-18T09:56:55;21.10;53.80
48806;DHT22;34625;47.176;27.548;2022-12-18T09:59:25;21.20;52.90
48806;DHT22;34625;47.176;27.548;2022-12-18T10:01:52;21.30;54.00
48806;DHT22;34625;47.176;27.548;2022-12-18T10:04:18;21.30;57.30
48806;DHT22;34625;47.176;27.548;2022-12-18T10:07:41;21.30;56.30
48806;DHT22;34625;47.176;27.548;2022-12-18T10:10:33;21.50;60.80
48806;DHT22;34625;47.176;27.548;2022-12-18T10:13:37;21.50;61.70
48806;DHT22;34625;47.176;27.548;2022-12-18T10:16:38;21.70;61.70
48806;DHT22;34625;47.176;27.548;2022-12-18T10:22:03;22.30;55.00
48806;DHT22;34625;47.176;27.548;2022-12-18T10:27:24;22.30;52.50
48806;DHT22;34625;47.176;27.548;2022-12-18T10:29:52;22.30;53.30
48806;DHT22;34625;47.176;27.548;2022-12-18T10:32:20;22.20;50.90
48806;DHT22;34625;47.176;27.548;2022-12-18T10:34:47;22.10;52.30
48806;DHT22;34625;47.176;27.548;2022-12-18T10:37:23;22.10;54.40
48806;DHT22;34625;47.176;27.548;2022-12-18T10:40:14;22.10;54.00
48806;DHT22;34625;47.176;27.548;2022-12-18T10:42:41;22.00;51.30
48806;DHT22;34625;47.176;27.548;2022-12-18T10:45:17;22.00;53.40
48806;DHT22;34625;47.176;27.548;2022-12-18T10:47:48;22.00;56.10
48806;DHT22;34625;47.176;27.548;2022-12-18T10:50:26;22.10;57.20
48806;DHT22;34625;47.176;27.548;2022-12-18T10:52:59;22.10;53.40
48806;DHT22;34625;47.176;27.548;2022-12-18T10:55:37;22.10;54.00
48806;DHT22;34625;47.176;27.548;2022-12-18T10:58:37;22.20;61.80
48806;DHT22;34625;47.176;27.548;2022-12-18T11:03:40;22.90;59.10
48806;DHT22;34625;47.176;27.548;2022-12-18T11:06:15;23.50;61.60
48806;DHT22;34625;47.176;27.548;2022-12-18T11:08:43;23.60;55.90
48806;DHT22;34625;47.176;27.548;2022-12-18T11:11:20;23.70;54.30
48806;DHT22;34625;47.176;27.548;2022-12-18T11:14:12;23.80;48.70
48806;DHT22;34625;47.176;27.548;2022-12-18T11:16:45;23.90;47.90
48806;DHT22;34625;47.176;27.548;2022-12-18T11:19:26;23.90;40.50
48806;DHT22;34625;47.176;27.548;2022-12-18T11:21:54;24.00;40.70
48806;DHT22;34625;47.176;27.548;2022-12-18T11:24:32;24.00;38.40
48806;DHT22;34625;47.176;27.548;2022-12-18T11:27:04;24.10;37.30
48806;DHT22;34625;47.176;27.548;2022-12-18T11:29:39;24.10;45.50
48806;DHT22;34625;47.176;27.548;2022-12-18T11:32:42;24.10;51.90
48806;DHT22;34625;47.176;27.548;2022-12-18T11:35:17;23.90;51.10
48806;DHT22;34625;47.176;27.548;2022-12-18T11:37:50;23.80;53.40
48806;DHT22;34625;47.176;27.548;2022-12-18T11:40:22;23.80;44.60
48806;DHT22;34625;47.176;27.548;2022-12-18T11:43:29;23.80;46.40
48806;DHT22;34625;47.176;27.548;2022-12-18T11:46:07;24.10;45.20
48806;DHT22;34625;47.176;27.548;2022-12-18T11:51:14;24.50;51.20
48806;DHT22;34625;47.176;27.548;2022-12-18T11:53:41;24.60;42.90
48806;DHT22;34625;47.176;27.548;2022-12-18T11:56:43;24.60;52.80
48806;DHT22;34625;47.176;27.548;2022-12-18T11:59:22;24.60;53.30
48806;DHT22;34625;47.176;27.548;2022-12-18T12:05:14;24.30;54.40
48806;DHT22;34625;47.176;27.548;2022-12-18T12:26:07;23.80;59.10
48806;DHT22;34625;47.176;27.548;2022-12-18T12:31:33;23.60;61.10
48806;DHT22;34625;47.176;27.548;2022-12-18T12:34:18;23.40;61.60
48806;DHT22;34625;47.176;27.548;2022-12-18T12:39:34;23.40;58.90
48806;DHT22;34625;47.176;27.548;2022-12-18T12:42:05;23.30;59.30
48806;DHT22;34625;47.176;27.548;2022-12-18T12:44:55;23.10;59.50
48806;DHT22;34625;47.176;27.548;2022-12-18T12:47:28;23.00;59.80
48806;DHT22;34625;47.176;27.548;2022-12-18T12:49:59;23.00;60.20
48806;DHT22;34625;47.176;27.548;2022-12-18T12:52:35;23.00;60.40
48806;DHT22;34625;47.176;27.548;2022-12-18T12:55:05;22.80;60.20
48806;DHT22;34625;47.176;27.548;2022-12-18T12:57:40;23.00;60.90
48806;DHT22;34625;47.176;27.548;2022-12-18T13:00:13;22.90;61.00
48806;DHT22;34625;47.176;27.548;2022-12-18T13:02:54;23.00;60.70
48806;DHT22;34625;47.176;27.548;2022-12-18T13:08:28;23.00;60.50
48806;DHT22;34625;47.176;27.548;2022-12-18T13:10:55;23.20;59.90
48806;DHT22;34625;47.176;27.548;2022-12-18T13:13:50;23.10;60.30
48806;DHT22;34625;47.176;27.548;2022-12-18T13:16:25;23.20;59.80
48806;DHT22;34625;47.176;27.548;2022-12-18T13:18:57;23.10;59.20
48806;DHT22;34625;47.176;27.548;2022-12-18T13:21:29;23.20;60.60
48806;DHT22;34625;47.176;27.548;2022-12-18T13:23:57;23.10;60.50
48806;DHT22;34625;47.176;27.548;2022-12-18T13:26:39;23.10;60.10
48806;DHT22;34625;47.176;27.548;2022-12-18T13:29:05;23.00;60.40
48806;DHT22;34625;47.176;27.548;2022-12-18T13:36:35;23.00;59.50
48806;DHT22;34625;47.176;27.548;2022-12-18T13:41:41;22.80;60.80
48806;DHT22;34625;47.176;27.548;2022-12-18T13:46:56;22.90;61.20
48806;DHT22;34625;47.176;27.548;2022-12-18T13:49:31;22.80;61.40
48806;DHT22;34625;47.176;27.548;2022-12-18T13:52:02;22.90;61.30
48806;DHT22;34625;47.176;27.548;2022-12-18T13:54:35;22.80;61.50
48806;DHT22;34625;47.176;27.548;2022-12-18T13:57:03;22.80;61.80
48806;DHT22;34625;47.176;27.548;2022-12-18T13:59:38;22.80;61.20
48806;DHT22;34625;47.176;27.548;2022-12-18T14:02:15;22.80;61.70
48806;DHT22;34625;47.176;27.548;2022-12-18T14:04:45;22.70;61.40
48806;DHT22;34625;47.176;27.548;2022-12-18T14:07:14;22.70;61.50
48806;DHT22;34625;47.176;27.548;2022-12-18T14:09:43;22.70;61.50
48806;DHT22;34625;47.176;27.548;2022-12-18T14:12:32;22.60;62.60
48806;DHT22;34625;47.176;27.548;2022-12-18T14:17:54;22.50;62.10
48806;DHT22;34625;47.176;27.548;2022-12-18T14:20:20;22.60;62.50
48806;DHT22;34625;47.176;27.548;2022-12-18T14:22:48;22.60;62.00
48806;DHT22;34625;47.176;27.548;2022-12-18T14:27:50;22.30;62.60
48806;DHT22;34625;47.176;27.548;2022-12-18T14:33:25;22.20;63.10
48806;DHT22;34625;47.176;27.548;2022-12-18T14:38:32;22.10;63.70
48806;DHT22;34625;47.176;27.548;2022-12-18T14:41:16;22.00;64.20
48806;DHT22;34625;47.176;27.548;2022-12-18T14:43:44;21.90;64.40
48806;DHT22;34625;47.176;27.548;2022-12-18T14:46:30;22.00;64.40
48806;DHT22;34625;47.176;27.548;2022-12-18T14:51:54;22.10;69.00
48806;DHT22;34625;47.176;27.548;2022-12-18T14:54:22;22.10;68.40
48806;DHT22;34625;47.176;27.548;2022-12-18T14:56:56;22.00;68.40
48806;DHT22;34625;47.176;27.548;2022-12-18T14:59:25;22.20;67.10
48806;DHT22;34625;47.176;27.548;2022-12-18T15:04:39;22.20;63.80
48806;DHT22;34625;47.176;27.548;2022-12-18T15:07:15;22.20;61.90
48806;DHT22;34625;47.176;27.548;2022-12-18T15:10:03;22.90;66.00
48806;DHT22;34625;47.176;27.548;2022-12-18T15:12:39;23.90;65.10
48806;DHT22;34625;47.176;27.548;2022-12-18T15:21:03;23.90;41.90
48806;DHT22;34625;47.176;27.548;2022-12-18T15:26:13;24.00;45.00
48806;DHT22;34625;47.176;27.548;2022-12-18T15:28:46;23.90;47.10
48806;DHT22;34625;47.176;27.548;2022-12-18T15:36:12;23.90;39.60
48806;DHT22;34625;47.176;27.548;2022-12-18T15:38:38;23.90;54.00
48806;DHT22;34625;47.176;27.548;2022-12-18T15:41:04;23.80;55.00
48806;DHT22;34625;47.176;27.548;2022-12-18T15:43:33;23.60;56.90
48806;DHT22;34625;47.176;27.548;2022-12-18T15:46:12;23.50;57.30
48806;DHT22;34625;47.176;27.548;2022-12-18T15:48:47;23.40;58.80
48806;DHT22;34625;47.176;27.548;2022-12-18T15:51:39;23.50;58.70
48806;DHT22;34625;47.176;27.548;2022-12-18T15:54:08;23.50;57.00
48806;DHT22;34625;47.176;27.548;2022-12-18T15:56:35;23.60;55.90
48806;DHT22;34625;47.176;27.548;2022-12-18T15:59:20;23.80;54.90
48806;DHT22;34625;47.176;27.548;2022-12-18T16:01:48;23.80;53.10
48806;DHT22;34625;47.176;27.548;2022-12-18T16:04:16;23.80;51.80
48806;DHT22;34625;47.176;27.548;2022-12-18T16:06:43;23.80;51.10
48806;DHT22;34625;47.176;27.548;2022-12-18T16:09:09;23.60;50.30
48806;DHT22;34625;47.176;27.548;2022-12-18T16:11:36;23.30;51.10
48806;DHT22;34625;47.176;27.548;2022-12-18T16:14:16;23.00;52.60
48806;DHT22;34625;47.176;27.548;2022-12-18T16:16:43;22.80;53.70
48806;DHT22;34625;47.176;27.548;2022-12-18T16:19:09;22.70;54.40
48806;DHT22;34625;47.176;27.548;2022-12-18T16:21:35;22.50;55.40
48806;DHT22;34625;47.176;27.548;2022-12-18T16:24:01;22.60;56.10
48806;DHT22;34625;47.176;27.548;2022-12-18T16:26:27;22.40;56.40
48806;DHT22;34625;47.176;27.548;2022-12-18T16:28:53;22.30;58.50
48806;DHT22;34625;47.176;27.548;2022-12-18T16:31:19;22.80;59.60
48806;DHT22;34625;47.176;27.548;2022-12-18T16:33:46;22.90;49.40
48806;DHT22;34625;47.176;27.548;2022-12-18T16:36:12;23.30;44.20
48806;DHT22;34625;47.176;27.548;2022-12-18T16:38:38;23.50;42.10
48806;DHT22;34625;47.176;27.548;2022-12-18T16:41:18;23.50;40.60
48806;DHT22;34625;47.176;27.548;2022-12-18T16:43:57;23.50;41.80
48806;DHT22;34625;47.176;27.548;2022-12-18T16:46:23;23.60;38.70
48806;DHT22;34625;47.176;27.548;2022-12-18T16:48:49;23.60;38.30
48806;DHT22;34625;47.176;27.548;2022-12-18T16:51:15;23.60;36.90
48806;DHT22;34625;47.176;27.548;2022-12-18T16:53:41;23.40;38.70
48806;DHT22;34625;47.176;27.548;2022-12-18T16:56:07;23.40;37.10
48806;DHT22;34625;47.176;27.548;2022-12-18T16:58:33;23.40;37.10
48806;DHT22;34625;47.176;27.548;2022-12-18T17:00:59;23.30;38.50
48806;DHT22;34625;47.176;27.548;2022-12-18T17:03:25;23.40;37.80
48806;DHT22;34625;47.176;27.548;2022-12-18T17:05:52;23.20;38.60
48806;DHT22;34625;47.176;27.548;2022-12-18T17:08:21;23.20;38.20
48806;DHT22;34625;47.176;27.548;2022-12-18T17:10:47;23.30;46.60
48806;DHT22;34625;47.176;27.548;2022-12-18T17:13:13;23.10;49.80
48806;DHT22;34625;47.176;27.548;2022-12-18T17:15:39;23.00;51.60
48806;DHT22;34625;47.176;27.548;2022-12-18T17:18:04;22.70;52.50